sensor_id;sensor_type;location;lat;lon;timestamp;temperature;humidity
21734;DHT22;11029;47.820;10.534;2024-03-17T00:01:38;6.40;86.90
21734;DHT22;11029;47.820;10.534;2024-03-17T00:04:23;6.40;87.10
21734;DHT22;11029;47.820;10.534;2024-03-17T00:07:07;6.40;86.90
21734;DHT22;11029;47.820;10.534;2024-03-17T00:09:52;6.40;86.70
21734;DHT22;11029;47.820;10.534;2024-03-17T00:12:37;6.40;86.80
21734;DHT22;11029;47.820;10.534;2024-03-17T00:15:22;6.40;87.20
21734;DHT22;11029;47.820;10.534;2024-03-17T00:18:07;6.40;87.00
21734;DHT22;11029;47.820;10.534;2024-03-17T00:20:53;6.40;86.40
21734;DHT22;11029;47.820;10.534;2024-03-17T00:23:38;6.30;86.70
21734;DHT22;11029;47.820;10.534;2024-03-17T00:26:22;6.30;87.70
21734;DHT22;11029;47.820;10.534;2024-03-17T00:29:07;6.30;87.20
21734;DHT22;11029;47.820;10.534;2024-03-17T00:31:53;6.30;87.30
21734;DHT22;11029;47.820;10.534;2024-03-17T00:34:38;6.20;87.30
21734;DHT22;11029;47.820;10.534;2024-03-17T00:37:22;6.20;87.40
21734;DHT22;11029;47.820;10.534;2024-03-17T00:40:07;6.20;87.30
21734;DHT22;11029;47.820;10.534;2024-03-17T00:42:52;6.10;87.40
21734;DHT22;11029;47.820;10.534;2024-03-17T00:45:38;6.10;87.40
21734;DHT22;11029;47.820;10.534;2024-03-17T00:48:22;6.10;87.50
21734;DHT22;11029;47.820;10.534;2024-03-17T00:51:07;6.00;87.50
21734;DHT22;11029;47.820;10.534;2024-03-17T00:53:51;6.00;86.90
21734;DHT22;11029;47.820;10.534;2024-03-17T00:56:36;5.90;87.20
21734;DHT22;11029;47.820;10.534;2024-03-17T00:59:21;5.90;87.60
21734;DHT22;11029;47.820;10.534;2024-03-17T01:02:05;5.90;87.60
21734;DHT22;11029;47.820;10.534;2024-03-17T01:04:50;5.90;87.40
21734;DHT22;11029;47.820;10.534;2024-03-17T01:07:34;5.80;87.50
21734;DHT22;11029;47.820;10.534;2024-03-17T01:10:19;5.80;88.00
21734;DHT22;11029;47.820;10.534;2024-03-17T01:13:05;5.90;87.90
21734;DHT22;11029;47.820;10.534;2024-03-17T01:15:52;5.80;86.80
21734;DHT22;11029;47.820;10.534;2024-03-17T01:18:37;5.80;87.50
21734;DHT22;11029;47.820;10.534;2024-03-17T01:21:22;5.80;87.50
21734;DHT22;11029;47.820;10.534;2024-03-17T01:24:07;5.80;88.20
21734;DHT22;11029;47.820;10.534;2024-03-17T01:26:52;5.90;87.90
21734;DHT22;11029;47.820;10.534;2024-03-17T01:29:37;6.00;87.90
21734;DHT22;11029;47.820;10.534;2024-03-17T01:32:22;6.00;88.00
21734;DHT22;11029;47.820;10.534;2024-03-17T01:35:07;6.00;87.80
21734;DHT22;11029;47.820;10.534;2024-03-17T01:37:52;6.00;87.70
21734;DHT22;11029;47.820;10.534;2024-03-17T01:40:36;6.00;87.40
21734;DHT22;11029;47.820;10.534;2024-03-17T01:43:21;6.00;87.40
21734;DHT22;11029;47.820;10.534;2024-03-17T01:46:08;6.00;87.60
21734;DHT22;11029;47.820;10.534;2024-03-17T01:48:56;6.00;86.80
21734;DHT22;11029;47.820;10.534;2024-03-17T01:51:42;5.90;87.60
21734;DHT22;11029;47.820;10.534;2024-03-17T01:54:27;5.90;87.10
21734;DHT22;11029;47.820;10.534;2024-03-17T01:57:13;5.80;86.30
21734;DHT22;11029;47.820;10.534;2024-03-17T01:59:58;5.80;87.00
21734;DHT22;11029;47.820;10.534;2024-03-17T02:02:43;5.70;87.40
21734;DHT22;11029;47.820;10.534;2024-03-17T02:05:28;5.80;87.80
21734;DHT22;11029;47.820;10.534;2024-03-17T02:08:13;5.80;87.50
21734;DHT22;11029;47.820;10.534;2024-03-17T02:10:57;5.80;87.30
21734;DHT22;11029;47.820;10.534;2024-03-17T02:13:42;5.80;87.10
21734;DHT22;11029;47.820;10.534;2024-03-17T02:16:26;5.80;86.90
21734;DHT22;11029;47.820;10.534;2024-03-17T02:19:11;5.80;87.20
21734;DHT22;11029;47.820;10.534;2024-03-17T02:21:57;5.80;86.80
21734;DHT22;11029;47.820;10.534;2024-03-17T02:24:42;5.70;86.50
21734;DHT22;11029;47.820;10.534;2024-03-17T02:27:27;5.60;87.10
21734;DHT22;11029;47.820;10.534;2024-03-17T02:30:11;5.60;87.50
21734;DHT22;11029;47.820;10.534;2024-03-17T02:32:56;5.60;87.60
21734;DHT22;11029;47.820;10.534;2024-03-17T02:35:40;5.50;87.50
21734;DHT22;11029;47.820;10.534;2024-03-17T02:38:25;5.50;87.70
21734;DHT22;11029;47.820;10.534;2024-03-17T02:41:36;5.50;87.80
21734;DHT22;11029;47.820;10.534;2024-03-17T02:44:21;5.60;87.70
21734;DHT22;11029;47.820;10.534;2024-03-17T02:47:06;5.50;87.60
21734;DHT22;11029;47.820;10.534;2024-03-17T02:49:53;5.60;87.50
21734;DHT22;11029;47.820;10.534;2024-03-17T02:52:39;5.60;87.30
21734;DHT22;11029;47.820;10.534;2024-03-17T02:55:24;5.60;87.20
21734;DHT22;11029;47.820;10.534;2024-03-17T02:58:10;5.60;87.50
21734;DHT22;11029;47.820;10.534;2024-03-17T03:00:55;5.60;87.70
21734;DHT22;11029;47.820;10.534;2024-03-17T03:03:40;5.70;88.00
21734;DHT22;11029;47.820;10.534;2024-03-17T03:06:25;5.70;88.00
21734;DHT22;11029;47.820;10.534;2024-03-17T03:09:10;5.80;88.30
21734;DHT22;11029;47.820;10.534;2024-03-17T03:11:58;5.80;88.10
21734;DHT22;11029;47.820;10.534;2024-03-17T03:14:44;5.80;88.10
21734;DHT22;11029;47.820;10.534;2024-03-17T03:17:29;5.80;88.10
21734;DHT22;11029;47.820;10.534;2024-03-17T03:20:14;5.80;87.80
21734;DHT22;11029;47.820;10.534;2024-03-17T03:22:59;5.80;87.70
21734;DHT22;11029;47.820;10.534;2024-03-17T03:25:44;5.70;86.10
21734;DHT22;11029;47.820;10.534;2024-03-17T03:28:30;5.60;86.90
21734;DHT22;11029;47.820;10.534;2024-03-17T03:31:16;5.50;87.60
21734;DHT22;11029;47.820;10.534;2024-03-17T03:34:02;5.50;87.80
21734;DHT22;11029;47.820;10.534;2024-03-17T03:36:47;5.50;87.90
21734;DHT22;11029;47.820;10.534;2024-03-17T03:39:31;5.50;88.20
21734;DHT22;11029;47.820;10.534;2024-03-17T03:42:16;5.60;87.60
21734;DHT22;11029;47.820;10.534;2024-03-17T03:45:01;5.60;87.50
21734;DHT22;11029;47.820;10.534;2024-03-17T03:47:46;5.60;87.40
21734;DHT22;11029;47.820;10.534;2024-03-17T03:50:31;5.60;87.30
21734;DHT22;11029;47.820;10.534;2024-03-17T03:53:17;5.60;87.40
21734;DHT22;11029;47.820;10.534;2024-03-17T03:56:05;5.60;87.60
21734;DHT22;11029;47.820;10.534;2024-03-17T03:58:50;5.60;87.40
21734;DHT22;11029;47.820;10.534;2024-03-17T04:01:35;5.60;87.50
21734;DHT22;11029;47.820;10.534;2024-03-17T04:04:19;5.50;86.80
21734;DHT22;11029;47.820;10.534;2024-03-17T04:07:04;5.40;87.20
21734;DHT22;11029;47.820;10.534;2024-03-17T04:09:49;5.30;87.70
21734;DHT22;11029;47.820;10.534;2024-03-17T04:12:33;5.30;87.90
21734;DHT22;11029;47.820;10.534;2024-03-17T04:15:18;5.30;88.40
21734;DHT22;11029;47.820;10.534;2024-03-17T04:18:03;5.30;88.50
21734;DHT22;11029;47.820;10.534;2024-03-17T04:20:48;5.30;88.10
21734;DHT22;11029;47.820;10.534;2024-03-17T04:23:33;5.30;88.10
21734;DHT22;11029;47.820;10.534;2024-03-17T04:26:17;5.30;88.00
21734;DHT22;11029;47.820;10.534;2024-03-17T04:29:02;5.30;88.00
21734;DHT22;11029;47.820;10.534;2024-03-17T04:31:46;5.30;87.60
21734;DHT22;11029;47.820;10.534;2024-03-17T04:34:33;5.30;87.50
21734;DHT22;11029;47.820;10.534;2024-03-17T04:37:17;5.30;87.20
21734;DHT22;11029;47.820;10.534;2024-03-17T04:40:02;5.20;87.50
21734;DHT22;11029;47.820;10.534;2024-03-17T04:42:49;5.20;87.20
21734;DHT22;11029;47.820;10.534;2024-03-17T04:45:34;5.20;87.60
21734;DHT22;11029;47.820;10.534;2024-03-17T04:48:19;5.30;87.80
21734;DHT22;11029;47.820;10.534;2024-03-17T04:51:04;5.20;87.70
21734;DHT22;11029;47.820;10.534;2024-03-17T04:53:49;5.20;88.50
21734;DHT22;11029;47.820;10.534;2024-03-17T04:56:33;5.20;87.70
21734;DHT22;11029;47.820;10.534;2024-03-17T04:59:18;5.20;88.00
21734;DHT22;11029;47.820;10.534;2024-03-17T05:02:03;5.20;88.30
21734;DHT22;11029;47.820;10.534;2024-03-17T05:04:47;5.20;88.00
21734;DHT22;11029;47.820;10.534;2024-03-17T05:07:32;5.20;88.10
21734;DHT22;11029;47.820;10.534;2024-03-17T05:10:16;5.10;87.20
21734;DHT22;11029;47.820;10.534;2024-03-17T05:13:01;4.80;89.00
21734;DHT22;11029;47.820;10.534;2024-03-17T05:15:47;4.80;90.20
21734;DHT22;11029;47.820;10.534;2024-03-17T05:18:32;4.80;90.30
21734;DHT22;11029;47.820;10.534;2024-03-17T05:21:20;4.80;90.40
21734;DHT22;11029;47.820;10.534;2024-03-17T05:24:06;4.80;89.80
21734;DHT22;11029;47.820;10.534;2024-03-17T05:26:50;4.80;89.90
21734;DHT22;11029;47.820;10.534;2024-03-17T05:29:35;4.80;89.30
21734;DHT22;11029;47.820;10.534;2024-03-17T05:32:22;4.80;89.70
21734;DHT22;11029;47.820;10.534;2024-03-17T05:35:06;4.80;89.20
21734;DHT22;11029;47.820;10.534;2024-03-17T05:37:51;4.80;88.50
21734;DHT22;11029;47.820;10.534;2024-03-17T05:40:35;4.80;89.10
21734;DHT22;11029;47.820;10.534;2024-03-17T05:43:24;4.80;89.00
21734;DHT22;11029;47.820;10.534;2024-03-17T05:46:11;4.80;89.10
21734;DHT22;11029;47.820;10.534;2024-03-17T05:48:56;4.80;89.30
21734;DHT22;11029;47.820;10.534;2024-03-17T05:51:40;4.90;89.60
21734;DHT22;11029;47.820;10.534;2024-03-17T05:54:25;4.80;88.90
21734;DHT22;11029;47.820;10.534;2024-03-17T05:57:10;4.70;88.80
21734;DHT22;11029;47.820;10.534;2024-03-17T05:59:56;4.70;90.40
21734;DHT22;11029;47.820;10.534;2024-03-17T06:02:41;4.80;90.50
21734;DHT22;11029;47.820;10.534;2024-03-17T06:05:25;4.90;90.20
21734;DHT22;11029;47.820;10.534;2024-03-17T06:08:10;4.90;90.10
21734;DHT22;11029;47.820;10.534;2024-03-17T06:10:56;5.00;89.60
21734;DHT22;11029;47.820;10.534;2024-03-17T06:13:44;5.00;89.40
21734;DHT22;11029;47.820;10.534;2024-03-17T06:16:30;5.10;88.90
21734;DHT22;11029;47.820;10.534;2024-03-17T06:19:15;5.10;88.70
21734;DHT22;11029;47.820;10.534;2024-03-17T06:21:59;5.00;87.70
21734;DHT22;11029;47.820;10.534;2024-03-17T06:24:44;4.90;89.10
21734;DHT22;11029;47.820;10.534;2024-03-17T06:27:29;5.00;89.50
21734;DHT22;11029;47.820;10.534;2024-03-17T06:30:14;5.20;89.30
21734;DHT22;11029;47.820;10.534;2024-03-17T06:33:00;5.20;88.40
21734;DHT22;11029;47.820;10.534;2024-03-17T06:35:46;5.20;87.50
21734;DHT22;11029;47.820;10.534;2024-03-17T06:38:32;5.30;88.10
21734;DHT22;11029;47.820;10.534;2024-03-17T06:41:17;5.30;88.00
21734;DHT22;11029;47.820;10.534;2024-03-17T06:44:02;5.30;86.10
21734;DHT22;11029;47.820;10.534;2024-03-17T06:46:46;5.30;87.20
21734;DHT22;11029;47.820;10.534;2024-03-17T06:49:31;5.40;87.00
21734;DHT22;11029;47.820;10.534;2024-03-17T06:52:17;5.50;86.70
21734;DHT22;11029;47.820;10.534;2024-03-17T06:55:01;5.60;86.80
21734;DHT22;11029;47.820;10.534;2024-03-17T06:57:46;5.80;86.40
21734;DHT22;11029;47.820;10.534;2024-03-17T07:00:34;5.90;86.40
21734;DHT22;11029;47.820;10.534;2024-03-17T07:03:18;5.90;85.20
21734;DHT22;11029;47.820;10.534;2024-03-17T07:06:03;6.00;85.90
21734;DHT22;11029;47.820;10.534;2024-03-17T07:08:49;6.20;85.90
21734;DHT22;11029;47.820;10.534;2024-03-17T07:11:34;6.20;84.00
21734;DHT22;11029;47.820;10.534;2024-03-17T07:14:19;6.20;85.40
21734;DHT22;11029;47.820;10.534;2024-03-17T07:17:04;6.40;85.80
21734;DHT22;11029;47.820;10.534;2024-03-17T07:19:48;6.50;84.60
21734;DHT22;11029;47.820;10.534;2024-03-17T07:22:34;6.70;85.00
21734;DHT22;11029;47.820;10.534;2024-03-17T07:25:18;6.80;84.30
21734;DHT22;11029;47.820;10.534;2024-03-17T07:28:03;7.00;84.50
21734;DHT22;11029;47.820;10.534;2024-03-17T07:30:52;7.30;83.80
21734;DHT22;11029;47.820;10.534;2024-03-17T07:33:38;7.50;83.20
21734;DHT22;11029;47.820;10.534;2024-03-17T07:36:22;7.60;82.30
21734;DHT22;11029;47.820;10.534;2024-03-17T07:39:07;7.70;81.00
21734;DHT22;11029;47.820;10.534;2024-03-17T07:41:51;7.50;80.00
21734;DHT22;11029;47.820;10.534;2024-03-17T07:44:36;7.40;82.60
21734;DHT22;11029;47.820;10.534;2024-03-17T07:47:21;7.60;82.30
21734;DHT22;11029;47.820;10.534;2024-03-17T07:50:06;7.90;80.40
21734;DHT22;11029;47.820;10.534;2024-03-17T07:52:50;7.60;81.10
21734;DHT22;11029;47.820;10.534;2024-03-17T07:55:35;7.90;81.10
21734;DHT22;11029;47.820;10.534;2024-03-17T07:58:19;7.60;81.10
21734;DHT22;11029;47.820;10.534;2024-03-17T08:01:10;7.50;83.00
21734;DHT22;11029;47.820;10.534;2024-03-17T08:03:55;7.80;82.40
21734;DHT22;11029;47.820;10.534;2024-03-17T08:06:40;8.00;81.00
21734;DHT22;11029;47.820;10.534;2024-03-17T08:09:25;7.90;81.20
21734;DHT22;11029;47.820;10.534;2024-03-17T08:12:10;8.10;82.00
21734;DHT22;11029;47.820;10.534;2024-03-17T08:14:55;8.20;79.90
21734;DHT22;11029;47.820;10.534;2024-03-17T08:17:39;8.50;80.80
21734;DHT22;11029;47.820;10.534;2024-03-17T08:20:24;9.00;79.90
21734;DHT22;11029;47.820;10.534;2024-03-17T08:23:09;8.80;78.40
21734;DHT22;11029;47.820;10.534;2024-03-17T08:25:59;8.90;79.50
21734;DHT22;11029;47.820;10.534;2024-03-17T08:28:45;9.30;79.30
21734;DHT22;11029;47.820;10.534;2024-03-17T08:31:30;9.60;78.60
21734;DHT22;11029;47.820;10.534;2024-03-17T08:34:15;9.90;77.80
21734;DHT22;11029;47.820;10.534;2024-03-17T08:36:59;10.00;76.30
21734;DHT22;11029;47.820;10.534;2024-03-17T08:39:44;10.20;75.90
21734;DHT22;11029;47.820;10.534;2024-03-17T08:42:29;9.90;76.40
21734;DHT22;11029;47.820;10.534;2024-03-17T08:45:13;10.10;76.00
21734;DHT22;11029;47.820;10.534;2024-03-17T08:47:58;10.50;75.50
21734;DHT22;11029;47.820;10.534;2024-03-17T08:50:50;10.60;72.90
21734;DHT22;11029;47.820;10.534;2024-03-17T08:53:38;10.60;73.20
21734;DHT22;11029;47.820;10.534;2024-03-17T08:56:23;10.60;72.40
21734;DHT22;11029;47.820;10.534;2024-03-17T08:59:08;10.20;73.80
21734;DHT22;11029;47.820;10.534;2024-03-17T09:01:56;9.60;74.00
21734;DHT22;11029;47.820;10.534;2024-03-17T09:04:41;9.60;75.40
21734;DHT22;11029;47.820;10.534;2024-03-17T09:07:26;9.80;74.70
21734;DHT22;11029;47.820;10.534;2024-03-17T09:10:10;10.00;73.90
21734;DHT22;11029;47.820;10.534;2024-03-17T09:12:57;10.00;74.20
21734;DHT22;11029;47.820;10.534;2024-03-17T09:16:01;10.30;74.20
21734;DHT22;11029;47.820;10.534;2024-03-17T09:18:46;10.70;72.60
21734;DHT22;11029;47.820;10.534;2024-03-17T09:21:30;10.90;68.00
21734;DHT22;11029;47.820;10.534;2024-03-17T09:24:15;11.30;68.80
21734;DHT22;11029;47.820;10.534;2024-03-17T09:26:59;11.30;68.00
21734;DHT22;11029;47.820;10.534;2024-03-17T09:29:46;11.40;67.20
21734;DHT22;11029;47.820;10.534;2024-03-17T09:32:31;11.40;67.80
21734;DHT22;11029;47.820;10.534;2024-03-17T09:35:16;11.20;67.30
21734;DHT22;11029;47.820;10.534;2024-03-17T09:38:00;11.00;65.70
21734;DHT22;11029;47.820;10.534;2024-03-17T09:40:48;10.80;65.90
21734;DHT22;11029;47.820;10.534;2024-03-17T09:43:43;11.00;66.00
21734;DHT22;11029;47.820;10.534;2024-03-17T09:46:28;11.30;64.10
21734;DHT22;11029;47.820;10.534;2024-03-17T09:49:15;11.20;63.20
21734;DHT22;11029;47.820;10.534;2024-03-17T09:52:03;11.10;64.40
21734;DHT22;11029;47.820;10.534;2024-03-17T09:55:00;11.10;62.70
21734;DHT22;11029;47.820;10.534;2024-03-17T09:57:45;11.10;63.00
21734;DHT22;11029;47.820;10.534;2024-03-17T10:00:31;11.10;63.00
21734;DHT22;11029;47.820;10.534;2024-03-17T10:03:51;11.30;62.90
21734;DHT22;11029;47.820;10.534;2024-03-17T10:06:45;11.70;62.30
21734;DHT22;11029;47.820;10.534;2024-03-17T10:09:35;11.70;62.00
21734;DHT22;11029;47.820;10.534;2024-03-17T10:12:25;11.90;61.20
21734;DHT22;11029;47.820;10.534;2024-03-17T10:15:11;12.20;61.60
21734;DHT22;11029;47.820;10.534;2024-03-17T10:17:57;12.30;60.00
21734;DHT22;11029;47.820;10.534;2024-03-17T10:20:41;12.30;61.00
21734;DHT22;11029;47.820;10.534;2024-03-17T10:23:26;12.30;59.00
21734;DHT22;11029;47.820;10.534;2024-03-17T10:26:14;12.10;58.20
21734;DHT22;11029;47.820;10.534;2024-03-17T10:28:59;12.00;59.20
21734;DHT22;11029;47.820;10.534;2024-03-17T10:31:44;12.00;60.70
21734;DHT22;11029;47.820;10.534;2024-03-17T10:34:30;12.30;60.30
21734;DHT22;11029;47.820;10.534;2024-03-17T10:37:21;12.20;60.10
21734;DHT22;11029;47.820;10.534;2024-03-17T10:40:12;12.00;59.90
21734;DHT22;11029;47.820;10.534;2024-03-17T10:42:59;11.80;59.40
21734;DHT22;11029;47.820;10.534;2024-03-17T10:45:44;11.70;60.90
21734;DHT22;11029;47.820;10.534;2024-03-17T10:48:31;11.60;61.80
21734;DHT22;11029;47.820;10.534;2024-03-17T10:51:17;11.70;61.30
21734;DHT22;11029;47.820;10.534;2024-03-17T10:54:03;12.00;61.00
21734;DHT22;11029;47.820;10.534;2024-03-17T10:56:48;12.10;58.50
21734;DHT22;11029;47.820;10.534;2024-03-17T10:59:40;12.10;60.00
21734;DHT22;11029;47.820;10.534;2024-03-17T11:02:26;12.00;59.30
21734;DHT22;11029;47.820;10.534;2024-03-17T11:05:22;12.10;60.80
21734;DHT22;11029;47.820;10.534;2024-03-17T11:08:15;12.10;60.90
21734;DHT22;11029;47.820;10.534;2024-03-17T11:11:00;12.10;60.90
21734;DHT22;11029;47.820;10.534;2024-03-17T11:13:45;12.30;60.50
21734;DHT22;11029;47.820;10.534;2024-03-17T11:16:30;12.20;60.80
21734;DHT22;11029;47.820;10.534;2024-03-17T11:19:16;12.20;60.20
21734;DHT22;11029;47.820;10.534;2024-03-17T11:25:38;12.30;59.90
21734;DHT22;11029;47.820;10.534;2024-03-17T11:31:44;12.40;59.70
21734;DHT22;11029;47.820;10.534;2024-03-17T11:34:32;12.30;61.40
21734;DHT22;11029;47.820;10.534;2024-03-17T11:37:44;12.30;61.70
21734;DHT22;11029;47.820;10.534;2024-03-17T11:40:29;12.50;60.50
21734;DHT22;11029;47.820;10.534;2024-03-17T11:43:17;12.60;60.50
21734;DHT22;11029;47.820;10.534;2024-03-17T11:46:03;12.70;61.40
21734;DHT22;11029;47.820;10.534;2024-03-17T11:48:48;12.60;61.20
21734;DHT22;11029;47.820;10.534;2024-03-17T11:51:34;12.50;61.80
21734;DHT22;11029;47.820;10.534;2024-03-17T11:54:23;12.50;60.10
21734;DHT22;11029;47.820;10.534;2024-03-17T11:57:13;12.70;61.10
21734;DHT22;11029;47.820;10.534;2024-03-17T12:00:19;12.60;60.90
21734;DHT22;11029;47.820;10.534;2024-03-17T12:03:10;12.40;61.80
21734;DHT22;11029;47.820;10.534;2024-03-17T12:05:55;12.20;62.30
21734;DHT22;11029;47.820;10.534;2024-03-17T12:08:39;12.20;61.50
21734;DHT22;11029;47.820;10.534;2024-03-17T12:11:24;12.20;62.10
21734;DHT22;11029;47.820;10.534;2024-03-17T12:14:19;12.30;61.00
21734;DHT22;11029;47.820;10.534;2024-03-17T12:17:06;12.40;61.90
21734;DHT22;11029;47.820;10.534;2024-03-17T12:19:52;12.40;62.40
21734;DHT22;11029;47.820;10.534;2024-03-17T12:22:37;12.20;61.20
21734;DHT22;11029;47.820;10.534;2024-03-17T12:25:21;12.30;62.30
21734;DHT22;11029;47.820;10.534;2024-03-17T12:28:15;12.30;61.80
21734;DHT22;11029;47.820;10.534;2024-03-17T12:31:01;12.60;60.80
21734;DHT22;11029;47.820;10.534;2024-03-17T12:33:46;12.80;60.40
21734;DHT22;11029;47.820;10.534;2024-03-17T12:36:30;12.70;60.70
21734;DHT22;11029;47.820;10.534;2024-03-17T12:39:20;12.60;60.10
21734;DHT22;11029;47.820;10.534;2024-03-17T12:42:10;12.50;60.50
21734;DHT22;11029;47.820;10.534;2024-03-17T12:45:02;12.90;60.50
21734;DHT22;11029;47.820;10.534;2024-03-17T12:47:49;13.10;57.80
21734;DHT22;11029;47.820;10.534;2024-03-17T12:50:35;13.20;60.20
21734;DHT22;11029;47.820;10.534;2024-03-17T12:53:20;13.10;59.60
21734;DHT22;11029;47.820;10.534;2024-03-17T12:56:06;13.30;58.40
21734;DHT22;11029;47.820;10.534;2024-03-17T12:59:09;13.20;58.20
21734;DHT22;11029;47.820;10.534;2024-03-17T13:02:13;12.90;59.30
21734;DHT22;11029;47.820;10.534;2024-03-17T13:05:17;12.80;57.80
21734;DHT22;11029;47.820;10.534;2024-03-17T13:08:04;13.00;59.40
21734;DHT22;11029;47.820;10.534;2024-03-17T13:10:49;13.00;58.80
21734;DHT22;11029;47.820;10.534;2024-03-17T13:13:34;13.10;57.90
21734;DHT22;11029;47.820;10.534;2024-03-17T13:16:18;13.20;58.30
21734;DHT22;11029;47.820;10.534;2024-03-17T13:19:03;13.20;57.10
21734;DHT22;11029;47.820;10.534;2024-03-17T13:21:48;13.20;54.00
21734;DHT22;11029;47.820;10.534;2024-03-17T13:24:32;12.90;56.60
21734;DHT22;11029;47.820;10.534;2024-03-17T13:27:17;13.00;56.30
21734;DHT22;11029;47.820;10.534;2024-03-17T13:30:02;13.00;57.40
21734;DHT22;11029;47.820;10.534;2024-03-17T13:32:48;12.80;58.20
21734;DHT22;11029;47.820;10.534;2024-03-17T13:35:36;12.70;56.40
21734;DHT22;11029;47.820;10.534;2024-03-17T13:38:23;12.50;56.30
21734;DHT22;11029;47.820;10.534;2024-03-17T13:41:08;12.20;57.40
21734;DHT22;11029;47.820;10.534;2024-03-17T13:43:53;12.20;58.80
21734;DHT22;11029;47.820;10.534;2024-03-17T13:46:41;12.10;58.70
21734;DHT22;11029;47.820;10.534;2024-03-17T13:49:26;11.90;57.10
21734;DHT22;11029;47.820;10.534;2024-03-17T13:52:11;11.80;57.80
21734;DHT22;11029;47.820;10.534;2024-03-17T13:54:55;11.70;58.80
21734;DHT22;11029;47.820;10.534;2024-03-17T13:57:41;11.70;58.70
21734;DHT22;11029;47.820;10.534;2024-03-17T14:00:28;11.70;57.80
21734;DHT22;11029;47.820;10.534;2024-03-17T14:03:14;11.70;59.30
21734;DHT22;11029;47.820;10.534;2024-03-17T14:05:58;11.50;58.10
21734;DHT22;11029;47.820;10.534;2024-03-17T14:08:43;11.60;58.80
21734;DHT22;11029;47.820;10.534;2024-03-17T14:11:27;11.50;57.90
21734;DHT22;11029;47.820;10.534;2024-03-17T14:14:12;11.40;56.50
21734;DHT22;11029;47.820;10.534;2024-03-17T14:16:57;11.30;58.90
21734;DHT22;11029;47.820;10.534;2024-03-17T14:19:42;11.30;57.60
21734;DHT22;11029;47.820;10.534;2024-03-17T14:22:26;11.10;59.40
21734;DHT22;11029;47.820;10.534;2024-03-17T14:25:17;11.10;59.70
21734;DHT22;11029;47.820;10.534;2024-03-17T14:28:06;11.10;59.60
21734;DHT22;11029;47.820;10.534;2024-03-17T14:30:52;11.20;58.60
21734;DHT22;11029;47.820;10.534;2024-03-17T14:33:37;11.20;57.20
21734;DHT22;11029;47.820;10.534;2024-03-17T14:36:21;11.30;58.70
21734;DHT22;11029;47.820;10.534;2024-03-17T14:39:11;11.20;58.20
21734;DHT22;11029;47.820;10.534;2024-03-17T14:41:55;11.30;58.90
21734;DHT22;11029;47.820;10.534;2024-03-17T14:44:40;11.40;59.00
21734;DHT22;11029;47.820;10.534;2024-03-17T14:47:25;11.40;57.80
21734;DHT22;11029;47.820;10.534;2024-03-17T14:50:11;11.30;58.40
21734;DHT22;11029;47.820;10.534;2024-03-17T14:52:56;11.20;58.80
21734;DHT22;11029;47.820;10.534;2024-03-17T14:55:43;11.20;58.20
21734;DHT22;11029;47.820;10.534;2024-03-17T14:58:27;11.10;59.30
21734;DHT22;11029;47.820;10.534;2024-03-17T15:01:12;11.10;59.70
21734;DHT22;11029;47.820;10.534;2024-03-17T15:03:57;11.10;61.40
21734;DHT22;11029;47.820;10.534;2024-03-17T15:06:42;11.10;60.80
21734;DHT22;11029;47.820;10.534;2024-03-17T15:09:27;11.10;60.60
21734;DHT22;11029;47.820;10.534;2024-03-17T15:12:11;11.10;60.80
21734;DHT22;11029;47.820;10.534;2024-03-17T15:14:56;11.00;61.80
21734;DHT22;11029;47.820;10.534;2024-03-17T15:17:41;10.90;60.60
21734;DHT22;11029;47.820;10.534;2024-03-17T15:20:28;10.80;62.10
21734;DHT22;11029;47.820;10.534;2024-03-17T15:23:13;10.80;61.40
21734;DHT22;11029;47.820;10.534;2024-03-17T15:26:04;10.80;61.30
21734;DHT22;11029;47.820;10.534;2024-03-17T15:28:52;10.80;61.30
21734;DHT22;11029;47.820;10.534;2024-03-17T15:31:37;10.80;61.90
21734;DHT22;11029;47.820;10.534;2024-03-17T15:34:23;10.80;61.70
21734;DHT22;11029;47.820;10.534;2024-03-17T15:37:07;10.90;61.90
21734;DHT22;11029;47.820;10.534;2024-03-17T15:39:53;10.90;61.40
21734;DHT22;11029;47.820;10.534;2024-03-17T15:42:39;10.90;62.10
21734;DHT22;11029;47.820;10.534;2024-03-17T15:45:24;11.00;62.20
21734;DHT22;11029;47.820;10.534;2024-03-17T15:48:09;10.90;61.70
21734;DHT22;11029;47.820;10.534;2024-03-17T15:50:56;10.90;61.90
21734;DHT22;11029;47.820;10.534;2024-03-17T15:53:43;10.90;61.90
21734;DHT22;11029;47.820;10.534;2024-03-17T15:56:28;10.80;62.60
21734;DHT22;11029;47.820;10.534;2024-03-17T15:59:13;10.60;63.20
21734;DHT22;11029;47.820;10.534;2024-03-17T16:01:57;10.60;63.60
21734;DHT22;11029;47.820;10.534;2024-03-17T16:04:42;10.50;63.60
21734;DHT22;11029;47.820;10.534;2024-03-17T16:07:27;10.40;63.60
21734;DHT22;11029;47.820;10.534;2024-03-17T16:10:18;10.40;64.00
21734;DHT22;11029;47.820;10.534;2024-03-17T16:13:06;10.30;64.50
21734;DHT22;11029;47.820;10.534;2024-03-17T16:15:51;10.30;64.60
21734;DHT22;11029;47.820;10.534;2024-03-17T16:18:38;10.20;65.10
21734;DHT22;11029;47.820;10.534;2024-03-17T16:21:25;10.10;65.50
21734;DHT22;11029;47.820;10.534;2024-03-17T16:24:11;10.10;66.00
21734;DHT22;11029;47.820;10.534;2024-03-17T16:26:57;10.00;66.60
21734;DHT22;11029;47.820;10.534;2024-03-17T16:29:42;10.00;66.60
21734;DHT22;11029;47.820;10.534;2024-03-17T16:32:28;9.80;67.40
21734;DHT22;11029;47.820;10.534;2024-03-17T16:35:12;9.70;68.30
21734;DHT22;11029;47.820;10.534;2024-03-17T16:37:57;9.60;68.90
21734;DHT22;11029;47.820;10.534;2024-03-17T16:40:42;9.70;68.10
21734;DHT22;11029;47.820;10.534;2024-03-17T16:49:29;9.60;69.00
21734;DHT22;11029;47.820;10.534;2024-03-17T16:52:16;9.50;69.50
21734;DHT22;11029;47.820;10.534;2024-03-17T16:55:01;9.50;69.70
21734;DHT22;11029;47.820;10.534;2024-03-17T16:57:49;9.40;70.10
21734;DHT22;11029;47.820;10.534;2024-03-17T17:00:34;9.40;70.30
21734;DHT22;11029;47.820;10.534;2024-03-17T17:03:19;9.30;70.60
21734;DHT22;11029;47.820;10.534;2024-03-17T17:06:05;9.20;70.10
21734;DHT22;11029;47.820;10.534;2024-03-17T17:08:49;9.20;70.90
21734;DHT22;11029;47.820;10.534;2024-03-17T17:11:34;9.10;71.10
21734;DHT22;11029;47.820;10.534;2024-03-17T17:14:19;9.10;71.20
21734;DHT22;11029;47.820;10.534;2024-03-17T17:17:05;9.00;71.60
21734;DHT22;11029;47.820;10.534;2024-03-17T17:19:50;9.00;71.60
21734;DHT22;11029;47.820;10.534;2024-03-17T17:22:38;9.00;71.90
21734;DHT22;11029;47.820;10.534;2024-03-17T17:25:22;8.90;72.00
21734;DHT22;11029;47.820;10.534;2024-03-17T17:28:07;8.80;72.40
21734;DHT22;11029;47.820;10.534;2024-03-17T17:30:52;8.80;72.40
21734;DHT22;11029;47.820;10.534;2024-03-17T17:33:36;8.70;72.70
21734;DHT22;11029;47.820;10.534;2024-03-17T17:36:22;8.70;72.00